Augusta, Arkansas
Current Conditions -  °F | °C
As of 9:56 PM on Wednesday 28 Jan 2015 (Local Time) from KSRC Reporting Station
Clear Clear  
Wind Chill: 10°   Ceiling: Unl
Heat Index: 10°   Visibility: 10mi
Dew Point:   Wind: 6mph
Humidity: 71%   Direction: 170°S
Pressure: 30.04"   Gusts: NA
Location:  35.28°N, 91.37°W
Report Text: KSRC 290356Z AUTO 17005KT 10SM CLR 10/05 A3004 RMK AO2 SLP180 T01000050 TSNO
Loading
Personal Weather Stations






























Interactive Weather Map New forecast layout! Learn more

10-Day Weather Forecast

Advertisements
Track Severe Weather on mobile